Time;durP1;ratioP1;P1;durP2;ratioP2;P2;SDS_P1;SDS_P2;PMS_P1;PMS_P2;Temp;Humidity;BMP_temperature;BMP_pressure;BME280_temperature;BME280_humidity;BME280_pressure;Samples;Min_cycle;Max_cycle;Signal;HPM_P1;HPM_P2
2023/01/10 00:02:02;;;;;;;;;;;;;;;8.55;70.45;101158.88;5005355;28;20550;-75
2023/01/10 00:04:29;;;;;;;;;;;;;;;8.54;70.15;101159.94;5003436;28;19918;-74
2023/01/10 00:06:55;;;;;;;;;;;;;;;8.53;70.13;101169.03;5005650;28;20424;-74
2023/01/10 00:09:20;;;;;;;;;;;;;;;8.52;70.20;101171.97;5006817;28;20377;-75
2023/01/10 00:14:43;;;;;;;;;;;;;;;8.51;70.22;101178.38;5017864;28;19922;-75
2023/01/10 00:17:08;;;;;;;;;;;;;;;8.50;70.18;101176.75;5009869;28;20370;-74
2023/01/10 00:19:34;;;;;;;;;;;;;;;8.50;70.04;101179.44;5010232;28;19929;-75
2023/01/10 00:22:08;;;;;;;;;;;;;;;8.50;69.92;101195.59;5010046;28;20044;-75
2023/01/10 00:24:33;;;;;;;;;;;;;;;8.49;69.96;101200.13;5008842;28;20301;-75
2023/01/10 00:26:59;;;;;;;;;;;;;;;8.48;70.13;101200.38;5006994;28;19918;-74
2023/01/10 00:29:28;;;;;;;;;;;;;;;8.47;69.99;101204.94;5007592;28;20008;-74
2023/01/10 00:31:53;;;;;;;;;;;;;;;8.46;70.21;101208.66;5010846;28;20290;-76
2023/01/10 00:34:19;;;;;;;;;;;;;;;8.46;70.11;101216.72;5009139;28;19921;-74
2023/01/10 00:36:46;;;;;;;;;;;;;;;8.45;70.05;101212.41;5008650;28;19933;-74
2023/01/10 00:39:11;;;;;;;;;;;;;;;8.43;70.09;101209.91;5007278;28;20382;-74
2023/01/10 00:44:20;;;;;;;;;;;;;;;8.41;70.04;101228.13;5003849;28;20016;-73
2023/01/10 00:46:45;;;;;;;;;;;;;;;8.41;70.00;101230.00;5010667;28;20008;-75
2023/01/10 00:49:14;;;;;;;;;;;;;;;8.40;70.17;101223.81;5003174;28;20011;-74
2023/01/10 00:51:39;;;;;;;;;;;;;;;8.38;70.23;101230.41;5004209;28;20356;-74
2023/01/10 00:54:04;;;;;;;;;;;;;;;8.38;70.03;101233.09;5009928;28;20008;-75
2023/01/10 00:56:29;;;;;;;;;;;;;;;8.36;70.08;101240.56;5009667;28;19929;-74
2023/01/10 00:58:55;;;;;;;;;;;;;;;8.36;70.10;101243.25;5008316;28;20830;-75
2023/01/10 01:01:20;;;;;;;;;;;;;;;8.34;70.05;101235.41;5007540;28;20388;-75
2023/01/10 01:03:45;;;;;;;;;;;;;;;8.34;70.34;101242.66;5009728;28;20397;-76
2023/01/10 01:06:10;;;;;;;;;;;;;;;8.33;69.99;101241.00;5006406;28;19932;-74
2023/01/10 01:08:36;;;;;;;;;;;;;;;8.32;69.96;101242.88;5010446;28;20376;-75
2023/01/10 01:11:01;;;;;;;;;;;;;;;8.32;69.93;101245.56;5008416;28;21050;-74
2023/01/10 01:13:26;;;;;;;;;;;;;;;8.31;69.91;101248.47;5008255;28;20013;-75
2023/01/10 01:15:52;;;;;;;;;;;;;;;8.30;70.10;101253.03;5010178;28;19922;-75
2023/01/10 01:18:19;;;;;;;;;;;;;;;8.29;70.03;101267.53;5005936;28;20305;-74
2023/01/10 01:20:45;;;;;;;;;;;;;;;8.29;70.04;101277.47;5004630;28;19925;-75
2023/01/10 01:23:10;;;;;;;;;;;;;;;8.29;69.94;101272.91;5007397;28;21289;-74
2023/01/10 01:25:36;;;;;;;;;;;;;;;8.28;69.85;101273.94;5009517;28;20386;-75
2023/01/10 01:28:01;;;;;;;;;;;;;;;8.27;70.14;101268.78;5006321;28;20277;-74
2023/01/10 01:30:26;;;;;;;;;;;;;;;8.24;70.22;101273.56;5008504;28;20026;-75
2023/01/10 01:32:52;;;;;;;;;;;;;;;8.24;70.07;101287.03;5005657;28;19952;-74
2023/01/10 01:35:17;;;;;;;;;;;;;;;8.23;70.18;101289.91;5004554;28;19934;-75
2023/01/10 01:37:43;;;;;;;;;;;;;;;8.22;70.06;101294.47;5008295;28;19918;-75
2023/01/10 01:40:13;;;;;;;;;;;;;;;8.22;70.13;101288.28;5008115;28;19922;-74
2023/01/10 01:42:38;;;;;;;;;;;;;;;8.20;70.03;101296.53;5006543;28;19932;-73
2023/01/10 01:45:07;;;;;;;;;;;;;;;8.21;69.99;101295.53;5006454;28;19929;-74
2023/01/10 01:47:34;;;;;;;;;;;;;;;8.21;70.04;101300.06;5009080;28;20038;-74
2023/01/10 01:49:59;;;;;;;;;;;;;;;8.21;69.98;101294.66;5004992;28;19941;-73
2023/01/10 01:52:28;;;;;;;;;;;;;;;8.21;70.01;101292.84;5004234;28;20317;-74
2023/01/10 01:54:56;;;;;;;;;;;;;;;8.20;69.97;101291.16;5003475;28;19929;-74
2023/01/10 01:57:24;;;;;;;;;;;;;;;8.20;70.26;101298.41;5007169;28;20450;-74
2023/01/10 01:59:52;;;;;;;;;;;;;;;8.20;69.95;101306.50;5008926;28;19972;-74
2023/01/10 02:02:22;;;;;;;;;;;;;;;8.18;69.91;101308.56;5007012;28;19929;-74
2023/01/10 02:04:59;;;;;;;;;;;;;;;8.18;69.93;101306.69;5008359;28;19956;-74
2023/01/10 02:07:28;;;;;;;;;;;;;;;8.17;70.04;101313.13;5009929;28;20396;-74
2023/01/10 02:09:53;;;;;;;;;;;;;;;8.17;70.00;101315.81;5006528;28;19932;-74
2023/01/10 02:12:18;;;;;;;;;;;;;;;8.15;69.99;101317.88;5005545;28;19925;-74
2023/01/10 02:14:45;;;;;;;;;;;;;;;8.15;70.19;101314.38;5006201;28;19921;-74
2023/01/10 02:17:11;;;;;;;;;;;;;;;8.15;70.00;101317.06;5005137;28;19956;-75
2023/01/10 02:19:40;;;;;;;;;;;;;;;8.14;70.16;101324.31;5009004;28;19949;-75
2023/01/10 02:22:08;;;;;;;;;;;;;;;8.13;70.13;101322.66;5008218;28;20008;-75
2023/01/10 02:24:45;;;;;;;;;;;;;;;8.14;70.10;101321.63;5004323;28;19926;-74
2023/01/10 02:27:23;;;;;;;;;;;;;;;8.13;70.12;101316.44;5005605;28;19926;-75
2023/01/10 02:29:51;;;;;;;;;;;;;;;8.12;69.94;101312.94;5009183;28;19918;-74
2023/01/10 02:32:19;;;;;;;;;;;;;;;8.13;70.06;101319.13;5002908;28;19928;-74
2023/01/10 02:34:55;;;;;;;;;;;;;;;8.12;69.96;101312.94;4999374;28;20412;-74
2023/01/10 02:37:20;;;;;;;;;;;;;;;8.11;70.04;101319.34;5004745;28;19918;-74
2023/01/10 02:39:55;;;;;;;;;;;;;;;8.11;70.12;101323.91;5006367;28;19921;-74
2023/01/10 02:42:36;;;;;;;;;;;;;;;8.12;70.06;101333.63;5006445;28;19932;-74
2023/01/10 02:45:06;;;;;;;;;;;;;;;8.11;69.97;101330.09;5004053;28;19929;-75
2023/01/10 02:47:38;;;;;;;;;;;;;;;8.11;69.97;101329.28;5007769;28;19918;-74
2023/01/10 02:50:36;;;;;;;;;;;;;;;8.10;70.29;101341.91;5004986;28;19918;-75
2023/01/10 02:53:03;;;;;;;;;;;;;;;8.10;70.22;101343.78;5004999;28;19925;-73
2023/01/10 02:55:52;;;;;;;;;;;;;;;8.09;70.23;101345.66;5006854;28;19953;-75
2023/01/10 02:58:23;;;;;;;;;;;;;;;8.08;70.14;101349.38;5006758;28;19932;-75
2023/01/10 03:00:54;;;;;;;;;;;;;;;8.09;70.15;101347.50;5007219;28;19921;-74
2023/01/10 03:03:20;;;;;;;;;;;;;;;8.08;69.95;101354.75;5004366;28;19922;-73
2023/01/10 03:05:45;;;;;;;;;;;;;;;8.08;70.06;101356.63;5004980;28;19936;-75
2023/01/10 03:08:19;;;;;;;;;;;;;;;8.06;70.17;101362.19;5002201;28;19929;-74
2023/01/10 03:10:47;;;;;;;;;;;;;;;8.05;70.19;101363.25;5008420;28;19922;-75
2023/01/10 03:13:19;;;;;;;;;;;;;;;8.05;70.07;101370.50;5006334;28;20266;-76
2023/01/10 03:15:45;;;;;;;;;;;;;;;8.04;70.27;101367.00;5005110;28;20044;-75
2023/01/10 03:18:12;;;;;;;;;;;;;;;8.03;70.11;101374.22;5004458;28;19925;-75
2023/01/10 03:20:41;;;;;;;;;;;;;;;8.02;70.17;101367.19;5008558;28;19921;-74
2023/01/10 03:23:08;;;;;;;;;;;;;;;8.03;70.26;101376.06;5007427;28;20019;-74
2023/01/10 03:25:35;;;;;;;;;;;;;;;8.01;70.22;101379.00;5004471;28;19930;-75
2023/01/10 03:28:13;;;;;;;;;;;;;;;8.02;70.09;101379.81;5006125;28;19945;-74
2023/01/10 03:30:43;;;;;;;;;;;;;;;8.01;69.98;101376.31;5007738;28;19953;-75
2023/01/10 03:33:10;;;;;;;;;;;;;;;8.01;70.18;101384.38;5004813;28;20369;-74
2023/01/10 03:35:35;;;;;;;;;;;;;;;8.01;70.15;101387.06;5004868;28;20445;-75
2023/01/10 03:38:10;;;;;;;;;;;;;;;8.00;70.19;101388.09;5006506;28;19975;-74
2023/01/10 03:40:42;;;;;;;;;;;;;;;8.00;70.10;101396.16;5005802;28;19928;-75
2023/01/10 03:45:59;;;;;;;;;;;;;;;8.00;70.17;101398.03;5010842;28;19924;-74
2023/01/10 03:48:27;;;;;;;;;;;;;;;7.99;70.01;101396.38;5007706;28;19948;-75
2023/01/10 03:50:52;;;;;;;;;;;;;;;7.99;69.93;101405.28;5011296;28;19953;-75
2023/01/10 03:53:18;;;;;;;;;;;;;;;7.99;69.93;101407.16;5008919;28;19969;-73
2023/01/10 03:55:44;;;;;;;;;;;;;;;7.99;70.16;101404.47;5006922;28;20511;-75
2023/01/10 03:58:09;;;;;;;;;;;;;;;7.99;70.20;101413.34;5009951;28;20425;-75
2023/01/10 04:00:34;;;;;;;;;;;;;;;7.99;70.10;101421.41;5009925;28;19926;-75
2023/01/10 04:03:00;;;;;;;;;;;;;;;7.99;70.12;101423.28;5008868;28;19925;-74
2023/01/10 04:05:26;;;;;;;;;;;;;;;7.98;70.28;101432.38;5005912;28;19976;-73
2023/01/10 04:07:51;;;;;;;;;;;;;;;7.98;70.04;101432.38;5006861;28;19921;-75
2023/01/10 04:10:17;;;;;;;;;;;;;;;7.98;70.26;101438.56;5009328;28;19929;-74
2023/01/10 04:12:42;;;;;;;;;;;;;;;7.97;70.19;101438.81;5009164;28;19921;-74
2023/01/10 04:15:08;;;;;;;;;;;;;;;7.97;70.11;101441.50;5007407;28;19925;-75
2023/01/10 04:17:33;;;;;;;;;;;;;;;7.96;70.13;101440.69;5007034;28;19929;-75
2023/01/10 04:19:58;;;;;;;;;;;;;;;7.96;70.00;101446.06;5011082;28;19940;-74
2023/01/10 04:22:24;;;;;;;;;;;;;;;7.96;69.90;101443.38;5014278;28;19944;-75
2023/01/10 04:24:50;;;;;;;;;;;;;;;7.96;70.05;101446.06;5014362;28;20470;-74
2023/01/10 04:27:16;;;;;;;;;;;;;;;7.96;69.91;101434.44;5013633;28;19933;-74
2023/01/10 04:29:41;;;;;;;;;;;;;;;7.95;69.88;101430.13;5013184;28;19921;-74
2023/01/10 04:32:06;;;;;;;;;;;;;;;7.95;70.09;101439.00;5012462;28;20400;-74
2023/01/10 04:34:31;;;;;;;;;;;;;;;7.95;69.98;101441.69;5014599;28;20015;-73
2023/01/10 04:36:57;;;;;;;;;;;;;;;7.94;69.92;101442.75;5005261;28;19929;-74
2023/01/10 04:39:22;;;;;;;;;;;;;;;7.95;69.99;101463.22;5013132;28;19928;-74
2023/01/10 04:41:47;;;;;;;;;;;;;;;7.95;70.01;101476.66;5013008;28;19948;-74
2023/01/10 04:44:12;;;;;;;;;;;;;;;7.95;70.24;101481.22;5013646;28;19921;-75
2023/01/10 04:46:38;;;;;;;;;;;;;;;7.93;70.03;101464.47;5011892;28;19929;-75
2023/01/10 04:49:03;;;;;;;;;;;;;;;7.93;70.11;101448.31;5013009;28;19929;-75
2023/01/10 04:51:28;;;;;;;;;;;;;;;7.92;70.12;101444.81;5011068;28;19926;-74
2023/01/10 04:53:54;;;;;;;;;;;;;;;7.92;70.05;101449.38;5001323;28;19969;-74
2023/01/10 04:56:20;;;;;;;;;;;;;;;7.91;70.00;101455.75;5008683;28;19941;-74
2023/01/10 04:58:46;;;;;;;;;;;;;;;7.91;70.14;101453.91;5011293;28;20717;-75
2023/01/10 05:01:21;;;;;;;;;;;;;;;7.90;70.15;101468.38;5028354;28;20420;-74
2023/01/10 05:03:47;;;;;;;;;;;;;;;7.90;70.22;101479.16;5029387;28;19922;-74
2023/01/10 05:06:13;;;;;;;;;;;;;;;7.90;70.00;101491.78;5014061;28;19917;-75
2023/01/10 05:08:38;;;;;;;;;;;;;;;7.90;70.00;101499.84;5012474;28;20358;-75
2023/01/10 05:11:04;;;;;;;;;;;;;;;7.89;70.26;101504.41;5012305;28;20373;-74
2023/01/10 05:13:29;;;;;;;;;;;;;;;7.89;70.01;101514.34;5010638;28;19964;-75
2023/01/10 05:15:55;;;;;;;;;;;;;;;7.88;69.93;101518.88;4994602;28;19922;-74
2023/01/10 05:18:21;;;;;;;;;;;;;;;7.88;70.00;101512.66;5001319;28;20274;-74
2023/01/10 05:20:46;;;;;;;;;;;;;;;7.86;70.16;101515.59;5012038;28;19925;-74
2023/01/10 05:23:11;;;;;;;;;;;;;;;7.87;70.11;101513.72;5011828;28;20405;-74
2023/01/10 05:25:36;;;;;;;;;;;;;;;7.86;70.09;101514.72;5000809;28;20275;-74
2023/01/10 05:28:02;;;;;;;;;;;;;;;7.86;69.92;101514.72;4994568;28;19918;-74
2023/01/10 05:30:27;;;;;;;;;;;;;;;7.86;70.13;101512.03;4994681;28;20362;-74
2023/01/10 05:32:52;;;;;;;;;;;;;;;7.85;70.27;101507.72;4994918;28;20284;-74
2023/01/10 05:35:17;;;;;;;;;;;;;;;7.85;70.20;101507.72;5012943;28;19937;-74
2023/01/10 05:37:43;;;;;;;;;;;;;;;7.84;70.05;101514.97;5012312;28;19948;-74
2023/01/10 05:40:08;;;;;;;;;;;;;;;7.84;70.02;101511.41;5013366;28;19972;-74
2023/01/10 05:42:34;;;;;;;;;;;;;;;7.85;69.93;101534.59;5013452;28;19917;-74
2023/01/10 05:44:59;;;;;;;;;;;;;;;7.85;69.87;101537.28;5009058;28;19921;-74
2023/01/10 05:47:24;;;;;;;;;;;;;;;7.84;69.81;101539.16;5012941;28;19925;-74
2023/01/10 05:49:49;;;;;;;;;;;;;;;7.84;69.77;101543.69;5012679;28;19921;-74
2023/01/10 05:52:15;;;;;;;;;;;;;;;7.83;69.86;101537.50;5013049;28;20289;-74
2023/01/10 05:54:41;;;;;;;;;;;;;;;7.84;70.00;101549.06;5010230;28;19926;-74
2023/01/10 05:57:06;;;;;;;;;;;;;;;7.82;69.89;101551.16;5012780;28;19918;-75
2023/01/10 05:59:31;;;;;;;;;;;;;;;7.82;70.01;101559.22;5003455;28;19929;-74
2023/01/10 06:01:57;;;;;;;;;;;;;;;7.81;69.97;101566.44;4993039;28;19964;-74
2023/01/10 06:04:22;;;;;;;;;;;;;;;7.81;70.10;101566.44;4998403;28;19925;-75
2023/01/10 06:06:47;;;;;;;;;;;;;;;7.80;70.07;101562.94;5011485;28;19926;-73
2023/01/10 06:09:12;;;;;;;;;;;;;;;7.79;69.94;101555.91;5012574;28;20397;-72
2023/01/10 06:11:38;;;;;;;;;;;;;;;7.78;69.99;101554.22;5012263;28;19926;-73
2023/01/10 06:14:03;;;;;;;;;;;;;;;7.79;69.99;101558.59;5011459;28;19929;-73
2023/01/10 06:16:28;;;;;;;;;;;;;;;7.78;70.21;101556.91;4995404;28;19975;-74
2023/01/10 06:18:54;;;;;;;;;;;;;;;7.79;69.90;101563.16;5013524;28;19950;-73
2023/01/10 06:21:19;;;;;;;;;;;;;;;7.78;70.21;101556.09;4993533;28;19921;-74
2023/01/10 06:23:44;;;;;;;;;;;;;;;7.76;70.04;101559.00;4993071;28;20012;-74
2023/01/10 06:26:10;;;;;;;;;;;;;;;7.77;69.96;101563.34;5003010;28;20370;-74
2023/01/10 06:28:35;;;;;;;;;;;;;;;7.76;70.02;101550.94;5011507;28;19972;-74
2023/01/10 06:31:00;;;;;;;;;;;;;;;7.75;69.99;101561.91;5004746;28;20370;-74
2023/01/10 06:33:25;;;;;;;;;;;;;;;7.75;69.96;101554.66;4993083;28;19968;-74
2023/01/10 06:35:51;;;;;;;;;;;;;;;7.74;69.96;101561.06;4995760;28;19960;-73
2023/01/10 06:38:17;;;;;;;;;;;;;;;7.76;69.94;101558.16;5011995;28;19968;-73
2023/01/10 06:40:42;;;;;;;;;;;;;;;7.75;70.06;101560.03;5011723;28;19925;-73
2023/01/10 06:43:07;;;;;;;;;;;;;;;7.75;69.92;101575.34;5011909;28;19975;-74
2023/01/10 06:45:32;;;;;;;;;;;;;;;7.75;69.94;101580.72;5011662;28;19921;-74
2023/01/10 06:47:58;;;;;;;;;;;;;;;7.74;69.88;101574.53;5009041;28;19932;-74
2023/01/10 06:50:23;;;;;;;;;;;;;;;7.74;70.10;101577.22;5012381;28;19975;-75
2023/01/10 06:52:58;;;;;;;;;;;;;;;7.74;70.15;101592.53;5010890;28;19965;-73
2023/01/10 06:55:24;;;;;;;;;;;;;;;7.74;69.89;101584.44;5012031;28;20324;-74
2023/01/10 06:57:54;;;;;;;;;;;;;;;7.73;70.00;101596.22;5023802;28;19921;-74
2023/01/10 07:00:19;;;;;;;;;;;;;;;7.72;69.87;101605.34;5011894;28;19917;-74
2023/01/10 07:02:45;;;;;;;;;;;;;;;7.70;69.93;101602.84;4992819;28;19922;-75
2023/01/10 07:05:10;;;;;;;;;;;;;;;7.69;69.65;101609.25;4993442;28;20271;-76
2023/01/10 07:07:35;;;;;;;;;;;;;;;7.69;70.16;101611.94;4992418;28;19929;-76
2023/01/10 07:10:00;;;;;;;;;;;;;;;7.69;70.06;101614.63;4992142;28;20011;-76
2023/01/10 07:12:26;;;;;;;;;;;;;;;7.69;69.97;101621.88;5008053;28;19926;-76
2023/01/10 07:14:51;;;;;;;;;;;;;;;7.68;69.86;101626.41;5004699;28;19952;-76
2023/01/10 07:17:16;;;;;;;;;;;;;;;7.67;70.06;101635.50;5008863;28;19933;-76
2023/01/10 07:19:41;;;;;;;;;;;;;;;7.68;69.96;101628.28;5008931;28;19934;-75
2023/01/10 07:22:07;;;;;;;;;;;;;;;7.66;69.97;101639.25;5006630;28;20374;-76
2023/01/10 07:24:33;;;;;;;;;;;;;;;7.67;69.73;101646.28;5030720;28;20382;-75
2023/01/10 07:26:58;;;;;;;;;;;;;;;7.66;69.93;101641.94;5001168;28;20530;-75
2023/01/10 07:29:23;;;;;;;;;;;;;;;7.66;69.84;101641.94;4998336;28;20382;-77
2023/01/10 07:31:48;;;;;;;;;;;;;;;7.65;69.86;101656.41;5005917;28;20369;-76
2023/01/10 07:34:14;;;;;;;;;;;;;;;7.65;70.01;101660.94;5014189;28;20012;-76
2023/01/10 07:36:39;;;;;;;;;;;;;;;7.64;69.97;101675.44;5015649;28;20370;-75
2023/01/10 07:39:04;;;;;;;;;;;;;;;7.64;69.84;101689.72;5014949;28;19921;-77
2023/01/10 07:41:30;;;;;;;;;;;;;;;7.63;70.14;101692.59;5009381;28;20598;-76
2023/01/10 07:43:55;;;;;;;;;;;;;;;7.63;69.98;101684.50;5006042;28;20345;-76
2023/01/10 07:46:20;;;;;;;;;;;;;;;7.63;69.88;101687.22;4996560;28;19928;-76
2023/01/10 07:48:45;;;;;;;;;;;;;;;7.62;69.82;101686.38;5013739;28;20024;-76
2023/01/10 07:51:11;;;;;;;;;;;;;;;7.62;70.06;101686.38;5012617;28;19964;-76
2023/01/10 07:53:37;;;;;;;;;;;;;;;7.61;69.87;101679.34;5015535;28;20337;-77
2023/01/10 07:56:02;;;;;;;;;;;;;;;7.62;69.96;101674.81;5014912;28;20020;-76
2023/01/10 07:58:28;;;;;;;;;;;;;;;7.61;69.92;101676.66;5013598;28;19975;-77
2023/01/10 08:00:59;;;;;;;;;;;;;;;7.61;70.01;101678.50;5004082;28;20363;-77
2023/01/10 08:03:25;;;;;;;;;;;;;;;7.62;69.90;101682.88;5003171;28;19933;-78
2023/01/10 08:06:00;;;;;;;;;;;;;;;7.62;69.78;101677.50;5006217;28;19918;-71
2023/01/10 08:08:26;;;;;;;;;;;;;;;7.62;69.90;101677.50;4993838;28;20258;-77
2023/01/10 08:10:51;;;;;;;;;;;;;;;7.62;69.93;101677.50;5004718;28;20375;-76
2023/01/10 08:13:16;;;;;;;;;;;;;;;7.62;69.77;101672.13;5008942;28;19930;-77
2023/01/10 08:15:41;;;;;;;;;;;;;;;7.61;69.80;101681.19;5013073;28;19921;-78
2023/01/10 08:18:07;;;;;;;;;;;;;;;7.61;69.84;101675.81;5011333;28;20293;-78
2023/01/10 08:20:32;;;;;;;;;;;;;;;7.60;69.79;101672.31;5000520;28;19957;-78
2023/01/10 08:22:57;;;;;;;;;;;;;;;7.61;69.65;101681.19;5001957;28;19971;-77
2023/01/10 08:25:23;;;;;;;;;;;;;;;7.59;69.98;101676.84;5011550;28;19921;-78
2023/01/10 08:27:51;;;;;;;;;;;;;;;7.59;69.89;101682.22;5006270;28;20381;-78
2023/01/10 08:30:16;;;;;;;;;;;;;;;7.60;69.72;101683.06;5007056;28;20279;-77
2023/01/10 08:32:42;;;;;;;;;;;;;;;7.59;70.04;101681.41;4997442;28;19948;-77
2023/01/10 08:35:08;;;;;;;;;;;;;;;7.59;69.77;101673.34;4992569;28;20246;-76
2023/01/10 08:37:34;;;;;;;;;;;;;;;7.59;69.68;101681.41;4992680;28;20308;-79
2023/01/10 08:39:59;;;;;;;;;;;;;;;7.59;69.84;101671.47;4993384;28;19930;-78
2023/01/10 08:42:25;;;;;;;;;;;;;;;7.58;69.83;101672.53;5015359;28;20018;-77
2023/01/10 08:44:50;;;;;;;;;;;;;;;7.60;69.97;101672.31;5010889;28;19932;-77
2023/01/10 08:47:15;;;;;;;;;;;;;;;7.59;69.83;101668.78;5012404;28;19932;-77
2023/01/10 08:49:40;;;;;;;;;;;;;;;7.58;69.67;101675.22;5002977;28;19921;-78
2023/01/10 08:52:06;;;;;;;;;;;;;;;7.57;69.79;101670.84;4999897;28;19947;-77
2023/01/10 08:54:32;;;;;;;;;;;;;;;7.57;69.82;101678.91;5006736;28;19929;-78
2023/01/10 08:56:57;;;;;;;;;;;;;;;7.57;69.77;101670.03;5012347;28;20012;-78
2023/01/10 08:59:22;;;;;;;;;;;;;;;7.56;69.84;101676.44;5001494;28;19925;-77
2023/01/10 09:01:48;;;;;;;;;;;;;;;7.56;69.82;101666.50;4993064;28;19922;-78
2023/01/10 09:04:13;;;;;;;;;;;;;;;7.56;69.70;101673.75;4992458;28;19932;-76
2023/01/10 09:06:38;;;;;;;;;;;;;;;7.55;69.98;101675.59;5023565;28;19929;-77
2023/01/10 09:09:04;;;;;;;;;;;;;;;7.55;69.75;101669.38;5009408;28;20326;-77
2023/01/10 09:11:29;;;;;;;;;;;;;;;7.55;69.71;101669.38;5012238;28;19929;-77
2023/01/10 09:13:54;;;;;;;;;;;;;;;7.56;69.57;101671.06;5010439;28;19955;-77
2023/01/10 09:16:19;;;;;;;;;;;;;;;7.54;69.63;101662.38;5008628;28;20010;-77
2023/01/10 09:18:45;;;;;;;;;;;;;;;7.53;69.66;101664.22;4994746;28;20366;-76
2023/01/10 09:21:10;;;;;;;;;;;;;;;7.52;69.76;101664.41;5018358;28;20293;-78
2023/01/10 09:23:35;;;;;;;;;;;;;;;7.52;69.54;101661.72;5011394;28;20024;-78
2023/01/10 09:26:01;;;;;;;;;;;;;;;7.50;69.79;101667.28;5020377;28;20582;-76
2023/01/10 09:28:27;;;;;;;;;;;;;;;7.50;69.78;101659.22;5012378;28;20329;-77
2023/01/10 09:30:52;;;;;;;;;;;;;;;7.49;69.62;101660.25;4992350;28;20367;-78
2023/01/10 09:33:17;;;;;;;;;;;;;;;7.49;69.65;101662.13;5000294;28;20096;-77
2023/01/10 09:35:43;;;;;;;;;;;;;;;7.48;69.78;101649.69;5024726;28;19929;-76
2023/01/10 09:38:13;;;;;;;;;;;;;;;7.48;69.62;101655.91;4994406;28;20380;-77
2023/01/10 09:40:44;;;;;;;;;;;;;;;7.48;69.53;101645.16;4991922;28;19921;-77
2023/01/10 09:43:16;;;;;;;;;;;;;;;7.49;69.80;101656.75;4992061;28;19928;-78
2023/01/10 09:45:41;;;;;;;;;;;;;;;7.47;69.58;101659.63;5011098;28;19922;-77
2023/01/10 09:48:15;;;;;;;;;;;;;;;7.47;69.73;101656.94;5011889;28;19928;-78
2023/01/10 09:50:40;;;;;;;;;;;;;;;7.47;69.72;101648.88;5010716;28;19917;-78
2023/01/10 09:53:22;;;;;;;;;;;;;;;7.49;69.75;101651.38;5009584;28;19964;-77
2023/01/10 09:55:52;;;;;;;;;;;;;;;7.48;69.61;101647.84;4994463;28;19922;-77
2023/01/10 09:58:19;;;;;;;;;;;;;;;7.48;69.93;101655.91;5006664;28;20024;-77
2023/01/10 10:00:53;;;;;;;;;;;;;;;7.49;69.72;101651.38;5008053;28;19921;-77
2023/01/10 10:03:37;;;;;;;;;;;;;;;7.49;69.47;101640.63;4996885;28;20329;-77
2023/01/10 10:06:03;;;;;;;;;;;;;;;7.48;69.60;101645.16;5017737;28;19917;-77
2023/01/10 10:08:28;;;;;;;;;;;;;;;7.47;69.66;101635.44;5002002;28;20290;-78
2023/01/10 10:11:12;;;;;;;;;;;;;;;7.49;69.62;101646.00;5009197;28;19943;-78
2023/01/10 10:13:37;;;;;;;;;;;;;;;7.49;69.98;101646.00;5010327;28;20024;-78
2023/01/10 10:16:15;;;;;;;;;;;;;;;7.48;69.54;101631.72;5018229;28;20286;-77
2023/01/10 10:18:43;;;;;;;;;;;;;;;7.49;69.55;101632.56;4992782;28;19929;-78
2023/01/10 10:21:27;;;;;;;;;;;;;;;7.51;69.68;101635.84;5005660;28;20008;-77
2023/01/10 10:23:58;;;;;;;;;;;;;;;7.49;69.50;101621.81;5010583;28;19968;-77
2023/01/10 10:26:26;;;;;;;;;;;;;;;7.50;69.54;101610.00;4990782;28;20001;-77
2023/01/10 10:29:17;;;;;;;;;;;;;;;7.50;69.68;101610.84;4993307;28;19922;-75
2023/01/10 10:32:01;;;;;;;;;;;;;;;7.51;69.92;101609.81;5007328;28;19956;-78
2023/01/10 10:34:35;;;;;;;;;;;;;;;7.51;69.95;101608.97;4992884;28;19968;-79
2023/01/10 10:37:14;;;;;;;;;;;;;;;7.52;69.50;101608.78;5010600;28;20304;-78
2023/01/10 10:39:39;;;;;;;;;;;;;;;7.52;69.80;101603.41;5012490;28;19921;-78
2023/01/10 10:42:10;;;;;;;;;;;;;;;7.53;69.99;101593.47;5009696;28;19944;-77
2023/01/10 10:44:57;;;;;;;;;;;;;;;7.54;69.75;101587.91;5007619;28;19925;-78
2023/01/10 10:47:26;;;;;;;;;;;;;;;7.54;69.80;101579.00;4992439;28;19918;-78
2023/01/10 10:49:51;;;;;;;;;;;;;;;7.55;69.80;101586.84;4993409;28;19957;-78
2023/01/10 10:52:24;;;;;;;;;;;;;;;7.54;69.77;101587.09;5003431;28;20052;-77
2023/01/10 10:54:50;;;;;;;;;;;;;;;7.55;69.90;101583.34;4999794;28;20366;-77
2023/01/10 10:57:16;;;;;;;;;;;;;;;7.56;69.79;101579.66;5011431;28;19925;-78
2023/01/10 10:59:43;;;;;;;;;;;;;;;7.56;69.84;101579.66;5007430;28;19929;-78
2023/01/10 11:02:18;;;;;;;;;;;;;;;7.56;69.98;101569.72;5001919;28;19918;-78
2023/01/10 11:04:44;;;;;;;;;;;;;;;7.57;69.66;101567.84;5025320;28;19929;-78
2023/01/10 11:07:12;;;;;;;;;;;;;;;7.56;69.67;101564.34;5010649;28;19932;-77
2023/01/10 11:10:03;;;;;;;;;;;;;;;7.56;69.90;101548.22;5012174;28;19968;-78
2023/01/10 11:12:29;;;;;;;;;;;;;;;7.58;69.92;101545.31;5010605;28;19922;-78
2023/01/10 11:14:55;;;;;;;;;;;;;;;7.58;69.72;101553.38;5005073;28;19925;-78
2023/01/10 11:17:25;;;;;;;;;;;;;;;7.58;69.77;101543.47;5025262;28;19925;-79
2023/01/10 11:19:55;;;;;;;;;;;;;;;7.59;69.84;101542.41;5011876;28;19930;-78
2023/01/10 11:22:20;;;;;;;;;;;;;;;7.59;69.78;101541.59;4994973;28;19922;-78
2023/01/10 11:24:53;;;;;;;;;;;;;;;7.60;69.98;101543.25;4992822;28;19922;-78
2023/01/10 11:27:21;;;;;;;;;;;;;;;7.60;69.73;101548.63;5007502;28;19926;-78
2023/01/10 11:29:48;;;;;;;;;;;;;;;7.61;69.64;101541.38;4993720;28;20039;-77
2023/01/10 11:32:16;;;;;;;;;;;;;;;7.61;69.70;101547.59;5010136;28;20420;-78
2023/01/10 11:34:47;;;;;;;;;;;;;;;7.61;69.79;101542.22;5011938;28;19917;-78
2023/01/10 11:37:15;;;;;;;;;;;;;;;7.61;69.70;101539.53;4998291;28;20004;-78
2023/01/10 11:39:40;;;;;;;;;;;;;;;7.61;69.88;101534.16;4995577;28;19922;-79
2023/01/10 11:42:28;;;;;;;;;;;;;;;7.62;69.78;101527.75;4992442;28;19948;-78
2023/01/10 11:44:54;;;;;;;;;;;;;;;7.63;69.79;101528.56;4992523;28;19918;-78
2023/01/10 11:47:19;;;;;;;;;;;;;;;7.63;69.76;101526.69;5000791;28;20035;-78
2023/01/10 11:49:45;;;;;;;;;;;;;;;7.65;69.68;101524.63;4996443;28;19973;-78
2023/01/10 11:52:13;;;;;;;;;;;;;;;7.64;69.60;101519.47;5011391;28;20407;-77
2023/01/10 11:54:39;;;;;;;;;;;;;;;7.65;69.90;101518.44;5011796;28;20395;-77
2023/01/10 11:57:13;;;;;;;;;;;;;;;7.65;69.82;101510.38;5009860;28;19918;-79
2023/01/10 11:59:39;;;;;;;;;;;;;;;7.65;69.86;101511.19;5008533;28;19921;-79
2023/01/10 12:02:15;;;;;;;;;;;;;;;7.67;69.79;101511.00;5011389;28;19983;-79
2023/01/10 12:04:43;;;;;;;;;;;;;;;7.67;69.90;101498.38;5012475;28;19948;-79
2023/01/10 12:07:10;;;;;;;;;;;;;;;7.66;69.85;101504.81;5014757;28;19921;-77
2023/01/10 12:09:53;;;;;;;;;;;;;;;7.68;69.76;101501.88;5019698;28;19948;-79
2023/01/10 12:12:24;;;;;;;;;;;;;;;7.68;69.84;101494.63;5020184;28;19972;-78
2023/01/10 12:14:50;;;;;;;;;;;;;;;7.69;69.94;101482.88;5011989;28;19957;-78
2023/01/10 12:17:35;;;;;;;;;;;;;;;7.71;69.87;101471.88;5012128;28;20344;-77
2023/01/10 12:20:03;;;;;;;;;;;;;;;7.72;69.83;101476.25;5005217;28;19929;-78
2023/01/10 12:22:55;;;;;;;;;;;;;;;7.70;69.72;101468.38;5014548;28;20008;-77
2023/01/10 12:25:22;;;;;;;;;;;;;;;7.73;69.76;101470.66;5000970;28;19925;-77
2023/01/10 12:27:50;;;;;;;;;;;;;;;7.73;69.85;101449.13;4998511;28;20382;-78
2023/01/10 12:30:20;;;;;;;;;;;;;;;7.74;69.73;101450.00;4998823;28;19926;-80
2023/01/10 12:32:48;;;;;;;;;;;;;;;7.74;69.76;101444.59;5002684;28;20018;-68
2023/01/10 12:35:18;;;;;;;;;;;;;;;7.76;69.73;101445.22;5010432;28;20012;-72
2023/01/10 12:37:44;;;;;;;;;;;;;;;7.74;69.88;101440.06;5005329;28;20016;-72
2023/01/10 12:40:09;;;;;;;;;;;;;;;7.75;69.86;101433.63;5009664;28;20012;-75
2023/01/10 12:45:50;;;;;;;;;;;;;;;7.76;69.96;101432.63;5004770;28;19956;-74
2023/01/10 12:48:41;;;;;;;;;;;;;;;7.79;69.84;101421.44;4995649;28;20672;-76
2023/01/10 12:51:11;;;;;;;;;;;;;;;7.78;69.83;101422.44;5008039;28;20271;-76
2023/01/10 12:53:42;;;;;;;;;;;;;;;7.80;69.64;101414.19;4992805;28;19914;-76
2023/01/10 12:56:11;;;;;;;;;;;;;;;7.79;69.67;101413.38;4993416;28;20060;-76
2023/01/10 12:58:45;;;;;;;;;;;;;;;7.80;69.84;101406.13;5008991;28;19980;-76
2023/01/10 13:01:13;;;;;;;;;;;;;;;7.79;69.86;101405.28;5011464;28;20021;-75
2023/01/10 13:03:39;;;;;;;;;;;;;;;7.81;69.76;101402.38;5010881;28;19921;-77